createdAt,value
2017-10-05T00:00:37.722Z,1013.18
2017-10-05T00:01:38.296Z,1013.14
2017-10-05T00:02:38.000Z,1013.06
2017-10-05T00:03:37.735Z,1012.96
2017-10-05T00:04:38.622Z,1012.90
2017-10-05T00:05:38.169Z,1012.77
2017-10-05T00:06:37.759Z,1012.80
2017-10-05T00:07:38.310Z,1012.76
2017-10-05T00:08:37.716Z,1012.78
2017-10-05T00:09:37.973Z,1012.78
2017-10-05T00:10:38.171Z,1012.71
2017-10-05T00:11:37.805Z,1012.65
2017-10-05T00:12:37.550Z,1012.63
2017-10-05T00:13:38.561Z,1012.69
2017-10-05T00:14:37.842Z,1012.74
2017-10-05T00:15:38.230Z,1012.66
2017-10-05T00:16:38.071Z,1012.71
2017-10-05T00:17:37.627Z,1012.65
2017-10-05T00:18:38.079Z,1012.67
2017-10-05T00:19:37.320Z,1012.66
2017-10-05T00:20:39.047Z,1012.67
2017-10-05T00:21:37.722Z,1012.63
2017-10-05T00:22:38.303Z,1012.59
2017-10-05T00:23:37.212Z,1012.64
2017-10-05T00:24:37.437Z,1012.64
2017-10-05T00:25:37.539Z,1012.63
2017-10-05T00:26:37.960Z,1012.68
2017-10-05T00:27:37.500Z,1012.59
2017-10-05T00:28:37.756Z,1012.62
2017-10-05T00:29:37.399Z,1012.58
2017-10-05T00:30:38.005Z,1012.54
2017-10-05T00:31:37.582Z,1012.55
2017-10-05T00:32:38.083Z,1012.48
2017-10-05T00:33:37.575Z,1012.49
2017-10-05T00:34:38.163Z,1012.43
2017-10-05T00:35:38.130Z,1012.40
2017-10-05T00:36:37.813Z,1012.33
2017-10-05T00:37:38.342Z,1012.32
2017-10-05T00:38:37.864Z,1012.37
2017-10-05T00:39:37.438Z,1012.33
2017-10-05T00:40:37.743Z,1012.22
2017-10-05T00:41:38.240Z,1012.30
2017-10-05T00:42:37.907Z,1012.29
2017-10-05T00:43:37.047Z,1012.26
2017-10-05T00:44:37.527Z,1012.22
2017-10-05T00:45:37.835Z,1012.28
2017-10-05T00:46:37.539Z,1012.13
2017-10-05T00:47:37.773Z,1012.06
2017-10-05T00:48:37.474Z,1012.01
2017-10-05T00:49:37.644Z,1012.03
2017-10-05T00:50:38.256Z,1011.99
2017-10-05T00:51:37.790Z,1011.98
2017-10-05T00:52:37.397Z,1011.99
2017-10-05T00:53:37.945Z,1011.98
2017-10-05T00:54:37.500Z,1011.96
2017-10-05T00:55:37.914Z,1011.87
2017-10-05T00:56:37.544Z,1011.85
2017-10-05T00:57:37.459Z,1011.86
2017-10-05T00:58:38.089Z,1011.84
2017-10-05T00:59:37.242Z,1011.90
2017-10-05T01:00:37.716Z,1011.84
2017-10-05T01:01:37.966Z,1011.86
2017-10-05T01:02:37.510Z,1011.89
2017-10-05T01:03:37.779Z,1011.92
2017-10-05T01:04:37.347Z,1011.82
2017-10-05T01:05:37.562Z,1011.88
2017-10-05T01:06:37.842Z,1011.75
2017-10-05T01:07:37.452Z,1011.69
2017-10-05T01:08:37.974Z,1011.68
2017-10-05T01:09:37.617Z,1011.64
2017-10-05T01:10:37.430Z,1011.55
2017-10-05T01:11:38.550Z,1011.56
2017-10-05T01:12:38.173Z,1011.53
2017-10-05T01:13:37.512Z,1011.52
2017-10-05T01:14:38.149Z,1011.59
2017-10-05T01:15:37.334Z,1011.52
2017-10-05T01:16:37.719Z,1011.59
2017-10-05T01:17:37.863Z,1011.55
2017-10-05T01:18:37.551Z,1011.49
2017-10-05T01:19:38.108Z,1011.52
2017-10-05T01:20:37.378Z,1011.49
2017-10-05T01:21:38.221Z,1011.47
2017-10-05T01:22:38.308Z,1011.50
2017-10-05T01:23:37.909Z,1011.51
2017-10-05T01:24:37.154Z,1011.50
2017-10-05T01:25:37.837Z,1011.55
2017-10-05T01:26:37.086Z,1011.57
2017-10-05T01:27:37.790Z,1011.43
2017-10-05T01:28:37.424Z,1011.34
2017-10-05T01:29:37.600Z,1011.18
2017-10-05T01:30:37.795Z,1011.09
2017-10-05T01:31:37.086Z,1010.99
2017-10-05T01:32:37.781Z,1010.93
2017-10-05T01:33:37.369Z,1010.97
2017-10-05T01:34:37.994Z,1010.96
2017-10-05T01:35:36.988Z,1010.97
2017-10-05T01:36:37.381Z,1011.01
2017-10-05T01:37:38.381Z,1010.96
2017-10-05T01:38:37.498Z,1010.92
2017-10-05T01:39:38.157Z,1010.93
2017-10-05T01:40:37.291Z,1010.85
2017-10-05T01:41:37.884Z,1010.76
2017-10-05T01:42:37.456Z,1010.66
2017-10-05T01:43:38.032Z,1010.69
2017-10-05T01:44:37.627Z,1010.76
2017-10-05T01:45:37.919Z,1010.72
2017-10-05T01:46:38.269Z,1010.68
2017-10-05T01:47:37.526Z,1010.65
2017-10-05T01:48:37.720Z,1010.63
2017-10-05T01:49:38.267Z,1010.58
2017-10-05T01:50:37.398Z,1010.58
2017-10-05T01:51:37.967Z,1010.61
2017-10-05T01:52:37.044Z,1010.60
2017-10-05T01:53:37.037Z,1010.59
2017-10-05T01:54:37.758Z,1010.57
2017-10-05T01:55:37.517Z,1010.50
2017-10-05T01:56:38.291Z,1010.46
2017-10-05T01:57:38.247Z,1010.46
2017-10-05T01:58:37.570Z,1010.42
2017-10-05T01:59:37.920Z,1010.38
2017-10-05T02:00:37.276Z,1010.36
2017-10-05T02:01:37.870Z,1010.30
2017-10-05T02:02:38.264Z,1010.27
2017-10-05T02:03:37.828Z,1010.26
2017-10-05T02:04:37.760Z,1010.20
2017-10-05T02:05:37.316Z,1010.19
2017-10-05T02:06:37.879Z,1010.13
2017-10-05T02:07:37.743Z,1010.08
2017-10-05T02:08:37.411Z,1010.07
2017-10-05T02:09:37.921Z,1010.07
2017-10-05T02:10:37.159Z,1010.06
2017-10-05T02:11:37.691Z,1009.98
2017-10-05T02:12:37.531Z,1009.96
2017-10-05T02:13:37.869Z,1009.95
2017-10-05T02:14:37.940Z,1009.95
2017-10-05T02:15:37.448Z,1009.90
2017-10-05T02:16:37.753Z,1009.91
2017-10-05T02:17:36.998Z,1009.93
2017-10-05T02:18:37.114Z,1009.97
2017-10-05T02:19:37.710Z,1009.89
2017-10-05T02:20:37.659Z,1009.89
2017-10-05T02:21:38.246Z,1009.86
2017-10-05T02:22:37.850Z,1009.86
2017-10-05T02:23:37.937Z,1009.87
2017-10-05T02:24:37.415Z,1009.82
2017-10-05T02:25:38.079Z,1009.71
2017-10-05T02:26:37.622Z,1009.73
2017-10-05T02:27:37.984Z,1009.66
2017-10-05T02:28:37.547Z,1009.69
2017-10-05T02:29:37.884Z,1009.69
2017-10-05T02:30:37.478Z,1009.59
2017-10-05T02:31:38.237Z,1009.59
2017-10-05T02:32:37.662Z,1009.58
2017-10-05T02:33:36.993Z,1009.54
2017-10-05T02:34:37.325Z,1009.55
2017-10-05T02:35:37.712Z,1009.56
2017-10-05T02:36:36.993Z,1009.54
2017-10-05T02:37:37.630Z,1009.48
2017-10-05T02:38:37.368Z,1009.48
2017-10-05T02:39:37.725Z,1009.41
2017-10-05T02:40:37.015Z,1009.41
2017-10-05T02:41:37.409Z,1009.44
2017-10-05T02:42:38.047Z,1009.39
2017-10-05T02:43:37.449Z,1009.32
2017-10-05T02:44:38.365Z,1009.30
2017-10-05T02:45:37.701Z,1009.25
2017-10-05T02:46:38.011Z,1009.23
2017-10-05T02:47:37.783Z,1009.29
2017-10-05T02:48:37.427Z,1009.23
2017-10-05T02:49:38.200Z,1009.21
2017-10-05T02:50:38.328Z,1009.20
2017-10-05T02:51:38.073Z,1009.17
2017-10-05T02:52:37.543Z,1009.07
2017-10-05T02:53:37.943Z,1009.04
2017-10-05T02:54:37.614Z,1009.00
2017-10-05T02:55:36.933Z,1008.95
2017-10-05T02:56:37.987Z,1008.89
2017-10-05T02:57:37.719Z,1008.82
2017-10-05T02:58:37.156Z,1008.81
2017-10-05T02:59:37.791Z,1008.80
2017-10-05T03:00:37.049Z,1008.88
2017-10-05T03:01:37.603Z,1008.77
2017-10-05T03:02:37.041Z,1008.73
2017-10-05T03:03:37.624Z,1008.76
2017-10-05T03:04:38.078Z,1008.74
2017-10-05T03:05:37.587Z,1008.81
2017-10-05T03:06:38.139Z,1008.57
2017-10-05T03:07:37.371Z,1008.71
2017-10-05T03:08:37.762Z,1008.62
2017-10-05T03:09:37.728Z,1008.60
2017-10-05T03:10:37.017Z,1008.64
2017-10-05T03:11:37.982Z,1008.55
2017-10-05T03:12:37.400Z,1008.53
2017-10-05T03:13:37.781Z,1008.53
2017-10-05T03:14:37.712Z,1008.49
2017-10-05T03:15:37.409Z,1008.47
2017-10-05T03:16:38.558Z,1008.46
2017-10-05T03:17:37.607Z,1008.37
2017-10-05T03:18:37.340Z,1008.43
2017-10-05T03:19:37.993Z,1008.42
2017-10-05T03:20:37.598Z,1008.41
2017-10-05T03:21:37.304Z,1008.35
2017-10-05T03:22:38.147Z,1008.26
2017-10-05T03:23:37.658Z,1008.22
2017-10-05T03:24:36.986Z,1008.20
2017-10-05T03:25:37.345Z,1008.13
2017-10-05T03:26:37.991Z,1008.11
2017-10-05T03:27:37.913Z,1008.09
2017-10-05T03:28:37.434Z,1008.00
2017-10-05T03:29:38.024Z,1007.99
2017-10-05T03:30:37.709Z,1007.88
2017-10-05T03:31:37.301Z,1007.82
2017-10-05T03:32:38.400Z,1007.81
2017-10-05T03:33:38.062Z,1007.76
2017-10-05T03:34:37.490Z,1007.74
2017-10-05T03:35:37.910Z,1007.76
2017-10-05T03:36:37.352Z,1007.77
2017-10-05T03:37:38.378Z,1007.63
2017-10-05T03:38:37.695Z,1007.54
2017-10-05T03:39:37.461Z,1007.51
2017-10-05T03:40:37.846Z,1007.53
2017-10-05T03:41:37.371Z,1007.48
2017-10-05T03:42:39.361Z,1007.46
2017-10-05T03:43:37.369Z,1007.40
2017-10-05T03:44:37.958Z,1007.37
2017-10-05T03:45:37.565Z,1007.38
2017-10-05T03:46:37.308Z,1007.26
2017-10-05T03:47:37.250Z,1007.23
2017-10-05T03:48:37.590Z,1007.12
2017-10-05T03:49:37.264Z,1007.10
2017-10-05T03:50:37.962Z,1007.03
2017-10-05T03:51:37.736Z,1007.02
2017-10-05T03:52:37.010Z,1007.05
2017-10-05T03:53:37.459Z,1007.06
2017-10-05T03:54:38.083Z,1006.96
2017-10-05T03:55:37.630Z,1006.92
2017-10-05T03:56:36.923Z,1006.87
2017-10-05T03:57:37.185Z,1006.76
2017-10-05T03:58:37.985Z,1006.76
2017-10-05T03:59:37.543Z,1006.65
2017-10-05T04:00:37.940Z,1006.68
2017-10-05T04:01:37.267Z,1006.65
2017-10-05T04:02:37.062Z,1006.60
2017-10-05T04:03:37.642Z,1006.57
2017-10-05T04:04:37.333Z,1006.54
2017-10-05T04:05:37.746Z,1006.46
2017-10-05T04:06:37.072Z,1006.45
2017-10-05T04:07:37.235Z,1006.39
2017-10-05T04:08:37.790Z,1006.39
2017-10-05T04:09:37.405Z,1006.31
2017-10-05T04:10:38.047Z,1006.34
2017-10-05T04:11:37.040Z,1006.33
2017-10-05T04:12:37.294Z,1006.26
2017-10-05T04:13:37.986Z,1006.32
2017-10-05T04:14:37.654Z,1006.26
2017-10-05T04:15:36.956Z,1006.27
2017-10-05T04:16:37.531Z,1006.28
2017-10-05T04:17:37.703Z,1006.24
2017-10-05T04:18:37.819Z,1006.19
2017-10-05T04:19:37.334Z,1006.15
2017-10-05T04:20:37.721Z,1006.15
2017-10-05T04:21:36.968Z,1005.92
2017-10-05T04:22:37.397Z,1005.76
2017-10-05T04:23:37.421Z,1005.78
2017-10-05T04:24:37.933Z,1006.01
2017-10-05T04:25:37.531Z,1005.76
2017-10-05T04:26:37.297Z,1005.72
2017-10-05T04:27:37.522Z,1005.72
2017-10-05T04:28:37.187Z,1005.66
2017-10-05T04:29:37.741Z,1005.75
2017-10-05T04:30:37.435Z,1005.75
2017-10-05T04:31:37.577Z,1005.58
2017-10-05T04:32:37.250Z,1005.52
2017-10-05T04:33:37.842Z,1005.40
2017-10-05T04:34:37.496Z,1005.40
2017-10-05T04:35:37.592Z,1005.36
2017-10-05T04:36:37.629Z,1005.44
2017-10-05T04:37:36.736Z,1005.40
2017-10-05T04:38:37.242Z,1005.43
2017-10-05T04:39:37.432Z,1005.43
2017-10-05T04:40:37.104Z,1005.42
2017-10-05T04:41:37.689Z,1005.45
2017-10-05T04:42:36.886Z,1005.45
2017-10-05T04:43:37.122Z,1005.37
2017-10-05T04:44:37.353Z,1005.46
2017-10-05T04:45:37.465Z,1005.36
2017-10-05T04:46:37.175Z,1005.41
2017-10-05T04:47:37.322Z,1005.35
2017-10-05T04:48:37.810Z,1005.39
2017-10-05T04:49:37.177Z,1005.34
2017-10-05T04:50:37.751Z,1005.19
2017-10-05T04:51:37.066Z,1005.22
2017-10-05T04:52:37.627Z,1005.16
2017-10-05T04:53:37.045Z,1005.20
2017-10-05T04:54:37.507Z,1005.21
2017-10-05T04:55:37.700Z,1005.27
2017-10-05T04:56:37.288Z,1005.19
2017-10-05T04:57:37.509Z,1005.14
2017-10-05T04:58:36.838Z,1005.20
2017-10-05T04:59:37.012Z,1005.14
2017-10-05T05:00:37.569Z,1005.12
2017-10-05T05:01:37.099Z,1005.11
2017-10-05T05:02:37.382Z,1005.07
2017-10-05T05:03:37.408Z,1005.01
2017-10-05T05:04:37.665Z,1005.06
2017-10-05T05:05:37.156Z,1005.10
2017-10-05T05:06:37.666Z,1004.99
2017-10-05T05:07:36.764Z,1004.93
2017-10-05T05:08:37.309Z,1004.87
2017-10-05T05:09:37.492Z,1004.83
2017-10-05T05:10:37.095Z,1004.78
2017-10-05T05:11:37.500Z,1004.76
2017-10-05T05:12:36.861Z,1004.74
2017-10-05T05:13:37.444Z,1004.69
2017-10-05T05:14:37.387Z,1004.58
2017-10-05T05:15:37.631Z,1004.64
2017-10-05T05:16:38.029Z,1004.70
2017-10-05T05:17:37.922Z,1004.62
2017-10-05T05:18:37.323Z,1004.62
2017-10-05T05:19:37.144Z,1004.64
2017-10-05T05:20:37.596Z,1004.59
2017-10-05T05:21:37.302Z,1004.56
2017-10-05T05:22:37.588Z,1004.50
2017-10-05T05:23:37.170Z,1004.46
2017-10-05T05:24:37.877Z,1004.41
2017-10-05T05:25:37.639Z,1004.36
2017-10-05T05:26:37.291Z,1004.27
2017-10-05T05:27:38.011Z,1004.29
2017-10-05T05:28:37.868Z,1004.24
2017-10-05T05:29:37.433Z,1004.19
2017-10-05T05:30:38.087Z,1004.22
2017-10-05T05:31:37.759Z,1004.11
2017-10-05T05:32:37.710Z,1004.27
2017-10-05T05:33:38.035Z,1004.01
2017-10-05T05:34:37.808Z,1004.03
2017-10-05T05:35:37.054Z,1003.98
2017-10-05T05:36:37.541Z,1003.99
2017-10-05T05:37:37.234Z,1004.01
2017-10-05T05:38:37.699Z,1003.89
2017-10-05T05:39:37.322Z,1003.95
2017-10-05T05:40:37.951Z,1003.95
2017-10-05T05:41:37.593Z,1003.83
2017-10-05T05:42:37.207Z,1003.76
2017-10-05T05:43:37.687Z,1003.79
2017-10-05T05:44:37.054Z,1003.74
2017-10-05T05:45:37.839Z,1003.78
2017-10-05T05:46:37.491Z,1003.68
2017-10-05T05:47:36.913Z,1003.79
2017-10-05T05:48:37.592Z,1003.78
2017-10-05T05:49:37.419Z,1003.73
2017-10-05T05:50:36.946Z,1003.67
2017-10-05T05:51:37.485Z,1003.74
2017-10-05T05:52:38.024Z,1003.64
2017-10-05T05:53:37.687Z,1003.69
2017-10-05T05:54:37.275Z,1003.66
2017-10-05T05:55:38.048Z,1003.62
2017-10-05T05:56:37.431Z,1003.65
2017-10-05T05:57:37.211Z,1003.57
2017-10-05T05:58:38.405Z,1003.53
2017-10-05T05:59:37.264Z,1003.47
2017-10-05T06:00:37.478Z,1003.39
2017-10-05T06:01:37.220Z,1003.45
2017-10-05T06:02:37.906Z,1003.44
2017-10-05T06:03:37.961Z,1003.40
2017-10-05T06:04:37.692Z,1003.33
2017-10-05T06:05:37.099Z,1003.29
2017-10-05T06:06:37.464Z,1003.30
2017-10-05T06:07:37.052Z,1003.27
2017-10-05T06:08:37.647Z,1003.18
2017-10-05T06:09:37.108Z,1003.27
2017-10-05T06:10:37.838Z,1003.20
2017-10-05T06:11:37.692Z,1003.21
2017-10-05T06:12:37.151Z,1003.12
2017-10-05T06:13:38.060Z,1003.08
2017-10-05T06:14:37.886Z,1003.00
2017-10-05T06:15:37.625Z,1003.04
2017-10-05T06:16:37.779Z,1003.04
2017-10-05T06:17:37.485Z,1002.90
2017-10-05T06:18:36.906Z,1002.98
2017-10-05T06:19:37.628Z,1003.01
2017-10-05T06:20:37.144Z,1002.99
2017-10-05T06:21:37.664Z,1003.03
2017-10-05T06:22:37.633Z,1003.09
2017-10-05T06:23:37.409Z,1002.98
2017-10-05T06:24:37.269Z,1003.10
2017-10-05T06:25:38.479Z,1002.98
2017-10-05T06:26:37.246Z,1003.01
2017-10-05T06:27:38.308Z,1002.94
2017-10-05T06:28:37.201Z,1003.06
2017-10-05T06:29:37.912Z,1002.96
2017-10-05T06:30:37.904Z,1002.84
2017-10-05T06:31:38.270Z,1002.98
2017-10-05T06:32:38.108Z,1002.93
2017-10-05T06:33:37.302Z,1002.87
2017-10-05T06:34:37.197Z,1002.93
2017-10-05T06:35:38.072Z,1002.91
2017-10-05T06:36:37.806Z,1002.91
2017-10-05T06:37:37.716Z,1002.89
2017-10-05T06:38:37.526Z,1002.91
2017-10-05T06:39:37.430Z,1002.93
2017-10-05T06:40:38.474Z,1002.87
2017-10-05T06:41:36.780Z,1002.88
2017-10-05T06:42:37.382Z,1002.67
2017-10-05T06:43:36.861Z,1002.86
2017-10-05T06:44:37.502Z,1002.73
2017-10-05T06:45:37.205Z,1002.66
2017-10-05T06:46:37.936Z,1002.62
2017-10-05T06:47:37.487Z,1002.57
2017-10-05T06:48:37.394Z,1002.62
2017-10-05T06:49:38.155Z,1002.54
2017-10-05T06:50:38.076Z,1002.52
2017-10-05T06:51:37.919Z,1002.40
2017-10-05T06:52:37.569Z,1002.22
2017-10-05T06:53:36.951Z,1002.25
2017-10-05T06:54:37.448Z,1002.23
2017-10-05T06:55:37.177Z,1002.16
2017-10-05T06:56:37.955Z,1002.18
2017-10-05T06:57:37.752Z,1002.23
2017-10-05T06:58:37.512Z,1002.23
2017-10-05T06:59:37.062Z,1002.16
2017-10-05T07:00:37.801Z,1002.16
2017-10-05T07:01:37.972Z,1002.12
2017-10-05T07:02:38.142Z,1002.03
2017-10-05T07:03:38.015Z,1002.12
2017-10-05T07:04:37.635Z,1002.16
2017-10-05T07:05:37.437Z,1002.10
2017-10-05T07:06:36.907Z,1002.09
2017-10-05T07:07:37.647Z,1002.03
2017-10-05T07:08:37.395Z,1002.03
2017-10-05T07:09:38.093Z,1002.06
2017-10-05T07:10:37.741Z,1002.02
2017-10-05T07:11:37.470Z,1001.95
2017-10-05T07:12:37.061Z,1001.90
2017-10-05T07:13:37.211Z,1001.76
2017-10-05T07:14:37.899Z,1001.81
2017-10-05T07:15:37.633Z,1001.77
2017-10-05T07:16:36.952Z,1001.65
2017-10-05T07:17:37.238Z,1001.67
2017-10-05T07:18:38.128Z,1001.58
2017-10-05T07:19:37.777Z,1001.68
2017-10-05T07:20:37.637Z,1001.61
2017-10-05T07:21:37.270Z,1001.46
2017-10-05T07:22:37.071Z,1001.62
2017-10-05T07:23:38.033Z,1001.58
2017-10-05T07:24:37.394Z,1001.60
2017-10-05T07:25:37.276Z,1001.50
2017-10-05T07:26:38.125Z,1001.63
2017-10-05T07:27:38.039Z,1001.50
2017-10-05T07:28:37.998Z,1001.56
2017-10-05T07:29:37.502Z,1001.51
2017-10-05T07:30:37.280Z,1001.58
2017-10-05T07:31:38.096Z,1001.52
2017-10-05T07:32:37.789Z,1001.39
2017-10-05T07:33:37.877Z,1001.38
2017-10-05T07:34:37.747Z,1001.41
2017-10-05T07:35:37.604Z,1001.45
2017-10-05T07:36:37.431Z,1001.49
2017-10-05T07:37:37.102Z,1001.48
2017-10-05T07:38:38.258Z,1001.43
2017-10-05T07:39:37.317Z,1001.39
2017-10-05T07:40:38.336Z,1001.44
2017-10-05T07:41:36.906Z,1001.32
2017-10-05T07:42:37.790Z,1001.33
2017-10-05T07:43:38.150Z,1001.40
2017-10-05T07:44:37.767Z,1001.44
2017-10-05T07:45:37.716Z,1001.26
2017-10-05T07:46:37.627Z,1001.22
2017-10-05T07:47:37.734Z,1001.23
2017-10-05T07:48:38.185Z,1001.19
2017-10-05T07:49:37.924Z,1001.24
2017-10-05T07:50:37.608Z,1001.06
2017-10-05T07:51:38.409Z,1001.11
2017-10-05T07:52:37.529Z,1001.00
2017-10-05T07:53:37.523Z,1001.30
2017-10-05T07:54:37.471Z,1000.86
2017-10-05T07:55:38.105Z,1000.99
2017-10-05T07:56:38.042Z,1001.01
2017-10-05T07:57:37.594Z,1001.24
2017-10-05T07:58:37.921Z,1001.08
2017-10-05T07:59:37.490Z,1000.85
2017-10-05T08:00:37.110Z,1000.92
2017-10-05T08:01:37.596Z,1000.93
2017-10-05T08:02:37.252Z,1000.60
2017-10-05T08:03:38.027Z,1000.75
2017-10-05T08:04:38.345Z,1000.91
2017-10-05T08:05:37.094Z,1000.84
2017-10-05T08:06:38.003Z,1000.77
2017-10-05T08:07:37.790Z,1000.78
2017-10-05T08:08:37.685Z,1000.69
2017-10-05T08:09:37.924Z,1000.64
2017-10-05T08:10:37.919Z,1000.58
2017-10-05T08:11:37.873Z,1000.62
2017-10-05T08:12:37.425Z,1000.73
2017-10-05T08:13:37.276Z,1000.66
2017-10-05T08:14:37.107Z,1000.63
2017-10-05T08:15:38.477Z,1000.54
2017-10-05T08:16:37.522Z,1000.54
2017-10-05T08:17:38.504Z,1000.47
2017-10-05T08:18:37.747Z,1000.47
2017-10-05T08:19:37.516Z,1000.45
2017-10-05T08:20:37.185Z,1000.41
2017-10-05T08:21:38.123Z,1000.45
2017-10-05T08:22:37.993Z,1000.45
2017-10-05T08:23:37.587Z,1000.44
2017-10-05T08:24:37.284Z,1000.30
2017-10-05T08:25:38.164Z,1000.36
2017-10-05T08:26:37.938Z,1000.32
2017-10-05T08:27:37.962Z,1000.30
2017-10-05T08:28:37.969Z,1000.34
2017-10-05T08:29:37.790Z,1000.20
2017-10-05T08:30:37.634Z,1000.21
2017-10-05T08:31:37.321Z,1000.10
2017-10-05T08:32:38.032Z,1000.24
2017-10-05T08:33:37.972Z,1000.31
2017-10-05T08:34:38.159Z,1000.27
2017-10-05T08:35:37.324Z,1000.23
2017-10-05T08:36:37.970Z,1000.25
2017-10-05T08:37:38.437Z,1000.04
2017-10-05T08:38:37.675Z,1000.13
2017-10-05T08:39:37.333Z,1000.14
2017-10-05T08:40:37.245Z,1000.22
2017-10-05T08:41:38.074Z,1000.14
2017-10-05T08:42:39.005Z,1000.10
2017-10-05T08:43:38.703Z,1000.06
2017-10-05T08:44:37.196Z,1000.01
2017-10-05T08:45:38.084Z,999.98
2017-10-05T08:46:38.295Z,1000.02
2017-10-05T08:47:38.389Z,999.92
2017-10-05T08:48:37.574Z,1000.09
2017-10-05T08:49:37.504Z,1000.06
2017-10-05T08:50:37.413Z,999.97
2017-10-05T08:51:37.441Z,999.94
2017-10-05T08:52:37.094Z,999.89
2017-10-05T08:53:38.221Z,999.86
2017-10-05T08:54:38.263Z,999.83
2017-10-05T08:55:37.358Z,999.73
2017-10-05T08:56:37.151Z,999.80
2017-10-05T08:57:38.194Z,999.74
2017-10-05T08:58:37.380Z,999.75
2017-10-05T08:59:37.515Z,1000.12
2017-10-05T09:00:37.301Z,999.83
2017-10-05T09:01:38.041Z,999.76
2017-10-05T09:02:37.640Z,999.82
2017-10-05T09:03:37.329Z,999.74
2017-10-05T09:04:37.787Z,999.65
2017-10-05T09:05:37.689Z,999.81
2017-10-05T09:06:37.456Z,999.66
2017-10-05T09:07:36.848Z,999.57
2017-10-05T09:08:37.678Z,999.61
2017-10-05T09:09:37.435Z,999.71
2017-10-05T09:10:37.302Z,999.69
2017-10-05T09:11:36.797Z,999.84
2017-10-05T09:12:37.606Z,999.65
2017-10-05T09:13:37.401Z,999.64
2017-10-05T09:14:38.086Z,999.46
2017-10-05T09:15:37.744Z,999.46
2017-10-05T09:16:37.316Z,999.53
2017-10-05T09:17:38.113Z,999.58
2017-10-05T09:18:37.119Z,999.54
2017-10-05T09:19:37.136Z,999.44
2017-10-05T09:20:37.697Z,999.48
2017-10-05T09:21:37.447Z,999.58
2017-10-05T09:22:36.881Z,999.38
2017-10-05T09:23:37.542Z,999.56
2017-10-05T09:24:37.252Z,999.49
2017-10-05T09:25:38.168Z,999.45
2017-10-05T09:26:37.445Z,999.47
2017-10-05T09:27:37.469Z,999.90
2017-10-05T09:28:37.344Z,999.57
2017-10-05T09:29:37.306Z,999.40
2017-10-05T09:30:37.329Z,999.37
2017-10-05T09:31:37.988Z,999.42
2017-10-05T09:32:37.568Z,999.36
2017-10-05T09:33:37.309Z,999.15
2017-10-05T09:34:37.671Z,999.32
2017-10-05T09:35:37.576Z,999.39
2017-10-05T09:36:37.340Z,999.35
2017-10-05T09:37:37.392Z,999.46
2017-10-05T09:38:37.393Z,999.33
2017-10-05T09:39:38.051Z,999.22
2017-10-05T09:40:37.471Z,999.25
2017-10-05T09:41:37.338Z,999.24
2017-10-05T09:42:38.456Z,999.26
2017-10-05T09:43:37.343Z,999.17
2017-10-05T09:44:38.291Z,999.25
2017-10-05T09:45:38.253Z,999.10
2017-10-05T09:46:37.787Z,999.18
2017-10-05T09:47:37.848Z,999.16
2017-10-05T09:48:37.509Z,999.26
2017-10-05T09:49:37.654Z,999.07
2017-10-05T09:50:37.178Z,999.47
2017-10-05T09:51:37.755Z,999.34
2017-10-05T09:52:37.692Z,999.31
2017-10-05T09:53:37.318Z,999.12
2017-10-05T09:54:36.960Z,999.30
2017-10-05T09:55:37.665Z,999.35
2017-10-05T09:56:37.691Z,999.37
2017-10-05T09:57:37.539Z,999.48
2017-10-05T09:58:37.725Z,999.45
2017-10-05T09:59:37.495Z,999.59
2017-10-05T10:00:37.457Z,999.58
2017-10-05T10:01:37.237Z,999.72
2017-10-05T10:02:38.797Z,999.77
2017-10-05T10:03:37.757Z,999.92
2017-10-05T10:04:37.518Z,1000.03
2017-10-05T10:05:37.292Z,999.85
2017-10-05T10:06:37.936Z,1000.14
2017-10-05T10:07:38.663Z,999.75
2017-10-05T10:08:37.931Z,999.98
2017-10-05T10:09:37.826Z,999.86
2017-10-05T10:10:37.680Z,999.88
2017-10-05T10:11:37.409Z,999.93
2017-10-05T10:12:37.224Z,999.94
2017-10-05T10:13:38.257Z,999.85
2017-10-05T10:14:38.025Z,999.98
2017-10-05T10:15:37.868Z,999.89
2017-10-05T10:16:37.975Z,1000.03
2017-10-05T10:17:37.972Z,1000.17
2017-10-05T10:18:37.969Z,1000.03
2017-10-05T10:19:37.641Z,1000.13
2017-10-05T10:20:37.799Z,999.99
2017-10-05T10:21:37.688Z,1000.16
2017-10-05T10:22:37.772Z,1000.13
2017-10-05T10:23:38.764Z,1000.24
2017-10-05T10:24:37.255Z,1000.18
2017-10-05T10:25:37.427Z,1000.38
2017-10-05T10:26:37.483Z,1000.25
2017-10-05T10:27:38.066Z,1000.35
2017-10-05T10:28:38.052Z,1000.22
2017-10-05T10:29:37.987Z,1000.24
2017-10-05T10:30:37.921Z,1000.32
2017-10-05T10:31:37.858Z,1000.30
2017-10-05T10:32:38.044Z,1000.45
2017-10-05T10:33:37.994Z,1000.37
2017-10-05T10:34:38.401Z,1000.49
2017-10-05T10:35:37.243Z,1000.55
2017-10-05T10:36:37.417Z,1000.61
2017-10-05T10:37:37.325Z,1000.79
2017-10-05T10:38:37.329Z,1000.86
2017-10-05T10:39:37.609Z,1001.07
2017-10-05T10:40:37.643Z,1000.99
2017-10-05T10:41:37.689Z,1001.21
2017-10-05T10:42:37.809Z,1001.20
2017-10-05T10:43:39.320Z,1001.32
2017-10-05T10:44:38.369Z,1001.11
2017-10-05T10:45:37.295Z,1001.54
2017-10-05T10:46:38.252Z,1001.69
2017-10-05T10:47:37.316Z,1001.70
2017-10-05T10:48:37.397Z,1001.82
2017-10-05T10:49:37.314Z,1001.68
2017-10-05T10:50:37.894Z,1001.82
2017-10-05T10:51:37.639Z,1001.91
2017-10-05T10:52:37.621Z,1002.13
2017-10-05T10:53:37.676Z,1002.20
2017-10-05T10:54:37.514Z,1002.49
2017-10-05T10:55:37.440Z,1002.40
2017-10-05T10:56:37.678Z,1002.58
2017-10-05T10:57:38.773Z,1002.48
2017-10-05T10:58:37.887Z,1002.75
2017-10-05T10:59:37.769Z,1002.80
2017-10-05T11:00:38.045Z,1003.00
2017-10-05T11:01:38.037Z,1003.06
2017-10-05T11:02:38.194Z,1003.05
2017-10-05T11:03:37.171Z,1003.14
2017-10-05T11:04:38.161Z,1003.30
2017-10-05T11:05:38.113Z,1003.21
2017-10-05T11:06:38.492Z,1003.31
2017-10-05T11:07:37.295Z,1003.38
2017-10-05T11:08:38.829Z,1003.58
2017-10-05T11:09:37.780Z,1003.42
2017-10-05T11:10:37.653Z,1003.46
2017-10-05T11:11:38.213Z,1003.42
2017-10-05T11:12:39.980Z,1003.53
2017-10-05T11:13:38.049Z,1003.73
2017-10-05T11:14:38.206Z,1003.78
2017-10-05T11:15:38.542Z,1003.85
2017-10-05T11:16:38.025Z,1003.63
2017-10-05T11:17:38.016Z,1003.93
2017-10-05T11:18:37.879Z,1003.82
2017-10-05T11:19:39.269Z,1003.98
2017-10-05T11:20:38.716Z,1004.12
2017-10-05T11:21:37.990Z,1004.21
2017-10-05T11:22:37.349Z,1004.11
2017-10-05T11:23:38.204Z,1004.25
2017-10-05T11:24:37.619Z,1004.23
2017-10-05T11:25:37.687Z,1004.39
2017-10-05T11:26:38.618Z,1004.55
2017-10-05T11:27:37.822Z,1004.48
2017-10-05T11:28:38.444Z,1004.42
2017-10-05T11:29:37.763Z,1004.50
2017-10-05T11:30:37.850Z,1004.52
2017-10-05T11:31:38.363Z,1004.64
2017-10-05T11:32:37.394Z,1004.41
2017-10-05T11:33:37.628Z,1004.64
2017-10-05T11:34:37.939Z,1004.68
2017-10-05T11:35:38.356Z,1004.68
2017-10-05T11:36:37.544Z,1004.59
2017-10-05T11:37:37.532Z,1004.70
2017-10-05T11:38:37.875Z,1004.82
2017-10-05T11:39:37.517Z,1004.79
2017-10-05T11:40:38.750Z,1004.82
2017-10-05T11:41:37.986Z,1004.90
2017-10-05T11:42:39.321Z,1004.86
2017-10-05T11:43:37.947Z,1005.07
2017-10-05T11:44:38.889Z,1005.06
2017-10-05T11:45:38.959Z,1004.71
2017-10-05T11:46:38.662Z,1004.96
2017-10-05T11:47:37.891Z,1004.99
2017-10-05T11:48:37.825Z,1005.02
2017-10-05T11:49:41.669Z,1005.12
2017-10-05T11:50:37.896Z,1005.22
2017-10-05T11:51:38.643Z,1005.23
2017-10-05T11:52:37.847Z,1005.32
2017-10-05T11:53:37.928Z,1005.58
2017-10-05T11:54:38.252Z,1005.47
2017-10-05T11:55:37.126Z,1005.54
2017-10-05T11:56:38.064Z,1005.53
2017-10-05T11:57:37.553Z,1005.59
2017-10-05T11:58:37.304Z,1005.47
2017-10-05T11:59:37.039Z,1005.63
2017-10-05T12:00:38.447Z,1005.64
2017-10-05T12:01:37.546Z,1005.54
2017-10-05T12:02:37.419Z,1005.50
2017-10-05T12:03:38.364Z,1005.55
2017-10-05T12:04:37.583Z,1005.57
2017-10-05T12:05:39.146Z,1005.75
2017-10-05T12:06:39.215Z,1005.45
2017-10-05T12:07:37.829Z,1005.70
2017-10-05T12:08:38.813Z,1005.76